createdAt,value
2023-08-07T00:02:32.122Z,0.60
2023-08-07T00:05:33.979Z,0.60
2023-08-07T00:08:38.109Z,0.77
2023-08-07T00:11:39.909Z,0.80
2023-08-07T00:14:41.779Z,0.73
2023-08-07T00:17:43.636Z,0.60
2023-08-07T00:20:45.503Z,0.60
2023-08-07T00:23:47.512Z,0.80
2023-08-07T00:26:49.378Z,0.70
2023-08-07T00:29:54.773Z,0.70
2023-08-07T00:32:56.702Z,0.65
2023-08-07T00:35:58.600Z,0.50
2023-08-07T00:39:00.492Z,0.60
2023-08-07T00:42:06.983Z,0.60
2023-08-07T00:45:09.350Z,0.50
2023-08-07T00:48:11.898Z,0.60
2023-08-07T00:51:13.945Z,0.47
2023-08-07T00:54:16.853Z,0.50
2023-08-07T00:57:22.896Z,0.45
2023-08-07T01:00:28.260Z,0.30
2023-08-07T01:03:30.140Z,0.40
2023-08-07T01:06:34.792Z,0.50
2023-08-07T01:09:36.581Z,0.50
2023-08-07T01:12:53.556Z,0.50
2023-08-07T01:15:57.325Z,0.47
2023-08-07T01:18:59.251Z,0.40
2023-08-07T01:22:16.834Z,0.40
2023-08-07T01:25:18.862Z,0.50
2023-08-07T01:28:36.811Z,0.43
2023-08-07T01:31:41.432Z,0.50
2023-08-07T01:34:43.282Z,0.47
2023-08-07T01:37:45.254Z,0.60
2023-08-07T01:40:47.107Z,0.50
2023-08-07T01:43:48.989Z,0.60
2023-08-07T01:46:53.940Z,0.60
2023-08-07T01:49:56.102Z,0.40
2023-08-07T01:52:58.043Z,0.50
2023-08-07T01:55:59.901Z,0.60
2023-08-07T01:59:05.271Z,0.50
2023-08-07T02:02:07.260Z,0.40
2023-08-07T02:05:12.709Z,0.30
2023-08-07T02:08:15.831Z,0.50
2023-08-07T02:11:17.686Z,0.40
2023-08-07T02:14:19.554Z,0.40
2023-08-07T02:17:23.132Z,0.60
2023-08-07T02:20:25.010Z,0.40
2023-08-07T02:23:26.894Z,0.50
2023-08-07T02:26:28.754Z,0.57
2023-08-07T02:29:34.275Z,0.50
2023-08-07T02:32:36.389Z,0.50
2023-08-07T02:35:41.759Z,0.40
2023-08-07T02:38:43.565Z,0.53
2023-08-07T02:41:45.432Z,0.50
2023-08-07T02:44:51.342Z,0.70
2023-08-07T02:47:53.207Z,0.60
2023-08-07T02:50:58.511Z,0.50
2023-08-07T02:54:00.520Z,0.50
2023-08-07T02:57:02.340Z,0.50
2023-08-07T03:00:07.795Z,0.50
2023-08-07T03:03:09.640Z,0.50
2023-08-07T03:06:11.593Z,0.40
2023-08-07T03:09:13.464Z,0.50
2023-08-07T03:12:15.376Z,0.40
2023-08-07T03:15:17.240Z,0.40
2023-08-07T03:18:19.098Z,0.40
2023-08-07T03:21:20.931Z,0.50
2023-08-07T03:24:22.882Z,0.50
2023-08-07T03:27:24.900Z,0.47
2023-08-07T03:30:29.658Z,0.40
2023-08-07T03:33:31.476Z,0.70
2023-08-07T03:36:37.176Z,0.55
2023-08-07T03:39:39.162Z,0.40
2023-08-07T03:42:41.081Z,0.50
2023-08-07T03:45:46.445Z,0.45
2023-08-07T03:48:48.309Z,0.40
2023-08-07T03:51:50.631Z,0.65
2023-08-07T03:54:52.572Z,0.70
2023-08-07T03:57:54.406Z,0.60
2023-08-07T04:00:56.971Z,0.68
2023-08-07T04:04:02.481Z,0.63
2023-08-07T04:07:07.932Z,0.40
2023-08-07T04:10:10.066Z,0.70
2023-08-07T04:13:11.921Z,0.50
2023-08-07T04:16:18.285Z,0.50
2023-08-07T04:19:20.168Z,0.57
2023-08-07T04:22:22.023Z,0.60
2023-08-07T04:25:23.941Z,0.60
2023-08-07T04:28:25.777Z,0.63
2023-08-07T04:31:30.589Z,0.60
2023-08-07T04:34:35.991Z,0.60
2023-08-07T04:37:37.852Z,0.52
2023-08-07T04:40:39.766Z,0.70
2023-08-07T04:43:42.762Z,1.03
2023-08-07T04:46:44.641Z,0.60
2023-08-07T04:49:50.913Z,0.60
2023-08-07T04:52:52.874Z,0.50
2023-08-07T04:55:54.933Z,0.47
2023-08-07T04:58:56.798Z,0.50
2023-08-07T05:02:03.108Z,0.60
2023-08-07T05:05:05.803Z,0.70
2023-08-07T05:08:10.496Z,0.52
2023-08-07T05:11:12.424Z,0.60
2023-08-07T05:14:14.426Z,0.60
2023-08-07T05:17:19.937Z,0.60
2023-08-07T05:20:21.805Z,0.88
2023-08-07T05:23:23.813Z,0.60
2023-08-07T05:26:25.701Z,0.50
2023-08-07T05:29:27.533Z,0.50
2023-08-07T05:32:33.026Z,0.60
2023-08-07T05:35:35.124Z,0.70
2023-08-07T05:38:36.990Z,0.50
2023-08-07T05:41:40.425Z,0.50
2023-08-07T05:44:42.260Z,0.60
2023-08-07T05:47:48.042Z,0.60
2023-08-07T05:50:53.507Z,0.93
2023-08-07T05:53:55.318Z,0.60
2023-08-07T05:56:57.194Z,0.50
2023-08-07T05:59:59.250Z,0.50
2023-08-07T06:03:01.113Z,0.70
2023-08-07T06:06:03.064Z,0.82
2023-08-07T06:09:05.289Z,0.50
2023-08-07T06:12:07.569Z,0.70
2023-08-07T06:15:10.272Z,0.50
2023-08-07T06:18:12.142Z,0.70
2023-08-07T06:21:13.980Z,0.45
2023-08-07T06:24:15.852Z,0.57
2023-08-07T06:27:17.689Z,0.80
2023-08-07T06:30:19.481Z,0.70
2023-08-07T06:33:21.374Z,0.60
2023-08-07T06:36:23.263Z,0.70
2023-08-07T06:39:25.272Z,0.50
2023-08-07T06:42:27.175Z,0.67
2023-08-07T06:45:29.044Z,0.70
2023-08-07T06:48:31.021Z,0.60
2023-08-07T06:51:32.878Z,0.70
2023-08-07T06:54:34.784Z,0.70
2023-08-07T06:57:36.679Z,1.00
2023-08-07T07:00:38.727Z,0.73
2023-08-07T07:03:40.653Z,0.60
2023-08-07T07:06:42.543Z,0.60
2023-08-07T07:09:44.423Z,0.60
2023-08-07T07:12:46.296Z,0.70
2023-08-07T07:15:48.251Z,0.70
2023-08-07T07:18:56.077Z,0.80
2023-08-07T07:21:58.327Z,0.85
2023-08-07T07:25:00.555Z,0.65
2023-08-07T07:28:02.656Z,0.73
2023-08-07T07:31:05.353Z,0.70
2023-08-07T07:34:07.465Z,0.60
2023-08-07T07:37:12.973Z,0.68
2023-08-07T07:40:14.907Z,0.70
2023-08-07T07:43:16.763Z,0.80
2023-08-07T07:46:18.598Z,0.60
2023-08-07T07:49:20.460Z,0.57
2023-08-07T07:52:22.321Z,1.15
2023-08-07T07:55:24.331Z,0.50
2023-08-07T07:58:26.435Z,0.70
2023-08-07T08:01:28.945Z,0.70
2023-08-07T08:04:30.979Z,0.70
2023-08-07T08:07:33.471Z,0.63
2023-08-07T08:10:35.520Z,0.80
2023-08-07T08:13:40.254Z,0.70
2023-08-07T08:16:42.147Z,0.73
2023-08-07T08:19:51.041Z,0.50
2023-08-07T08:22:53.428Z,0.60
2023-08-07T08:25:55.275Z,1.10
2023-08-07T08:28:57.113Z,0.60
2023-08-07T08:31:58.986Z,1.03
2023-08-07T08:35:04.678Z,0.90
2023-08-07T08:38:06.496Z,0.70
2023-08-07T08:41:10.412Z,0.45
2023-08-07T08:44:12.470Z,0.70
2023-08-07T08:47:15.547Z,0.60
2023-08-07T08:50:17.614Z,0.80
2023-08-07T08:53:19.999Z,0.95
2023-08-07T08:56:23.693Z,0.60
2023-08-07T08:59:25.530Z,0.80
2023-08-07T09:02:27.737Z,0.60
2023-08-07T09:05:29.652Z,0.70
2023-08-07T09:08:31.627Z,0.57
2023-08-07T09:11:34.490Z,0.57
2023-08-07T09:14:36.349Z,0.50
2023-08-07T09:17:42.359Z,0.50
2023-08-07T09:20:47.697Z,0.60
2023-08-07T09:23:49.528Z,0.60
2023-08-07T09:26:56.287Z,0.50
2023-08-07T09:29:59.030Z,0.70
2023-08-07T09:33:01.638Z,0.70
2023-08-07T09:36:07.227Z,0.90
2023-08-07T09:39:09.310Z,0.60
2023-08-07T09:42:19.070Z,0.80
2023-08-07T09:45:28.237Z,0.80
2023-08-07T09:48:30.165Z,0.60
2023-08-07T09:51:48.226Z,0.50
2023-08-07T09:54:50.212Z,0.55
2023-08-07T09:57:52.371Z,0.90
2023-08-07T10:01:00.834Z,0.90
2023-08-07T10:04:02.970Z,0.67
2023-08-07T10:07:05.114Z,0.90
2023-08-07T10:10:12.410Z,0.93
2023-08-07T10:13:19.024Z,0.68
2023-08-07T10:16:22.556Z,0.87
2023-08-07T10:19:24.407Z,0.50
2023-08-07T10:22:27.577Z,0.40
2023-08-07T10:25:29.427Z,0.60
2023-08-07T10:28:31.315Z,0.60
2023-08-07T10:31:33.231Z,0.73
2023-08-07T10:34:35.822Z,0.60
2023-08-07T10:37:47.531Z,0.50
2023-08-07T10:41:09.355Z,0.70
2023-08-07T10:44:30.139Z,0.60
2023-08-07T10:47:35.667Z,0.43
2023-08-07T10:50:58.690Z,0.60
2023-08-07T10:54:06.443Z,0.40
2023-08-07T10:57:11.060Z,0.68
2023-08-07T11:00:14.103Z,0.45
2023-08-07T11:03:29.256Z,0.67
2023-08-07T11:06:39.372Z,0.50
2023-08-07T11:09:41.207Z,0.40
2023-08-07T11:12:46.809Z,0.80
2023-08-07T11:15:48.909Z,0.50
2023-08-07T11:18:50.913Z,0.40
2023-08-07T11:21:56.096Z,0.50
2023-08-07T11:24:58.002Z,0.38
2023-08-07T11:28:04.434Z,0.40
2023-08-07T11:31:06.331Z,0.40
2023-08-07T11:34:08.151Z,0.40
2023-08-07T11:37:15.416Z,0.40
2023-08-07T11:40:18.128Z,0.40
2023-08-07T11:43:23.101Z,0.90
2023-08-07T11:46:29.466Z,0.47
2023-08-07T11:49:31.325Z,0.60
2023-08-07T11:52:35.978Z,0.50
2023-08-07T11:55:37.847Z,0.47
2023-08-07T11:58:41.099Z,0.50
2023-08-07T12:01:44.063Z,0.40
2023-08-07T12:04:46.042Z,0.40
2023-08-07T12:07:53.616Z,0.43
2023-08-07T12:10:55.553Z,0.50
2023-08-07T12:13:57.578Z,0.30
2023-08-07T12:17:01.379Z,0.40
2023-08-07T12:20:05.692Z,0.40
2023-08-07T12:23:20.259Z,0.40
2023-08-07T12:26:22.065Z,0.40
2023-08-07T12:29:28.598Z,0.50
2023-08-07T12:32:30.443Z,0.40
2023-08-07T12:35:33.066Z,0.30
2023-08-07T12:38:37.944Z,0.50
2023-08-07T12:44:48.125Z,0.57
2023-08-07T12:47:50.015Z,0.63
2023-08-07T12:50:51.922Z,0.47
2023-08-07T12:53:58.317Z,0.40
2023-08-07T12:57:00.125Z,0.40
2023-08-07T13:00:04.831Z,0.70
2023-08-07T13:03:06.679Z,0.50
2023-08-07T13:06:13.230Z,0.40
2023-08-07T13:09:19.671Z,0.40
2023-08-07T13:12:21.500Z,0.47
2023-08-07T13:15:23.429Z,0.50
2023-08-07T13:18:25.701Z,0.40
2023-08-07T13:21:27.649Z,0.60
2023-08-07T13:24:29.517Z,0.30
2023-08-07T13:27:34.802Z,0.40
2023-08-07T13:30:37.825Z,0.40
2023-08-07T13:33:39.996Z,0.40
2023-08-07T13:36:41.790Z,0.40
2023-08-07T13:39:47.830Z,0.37
2023-08-07T13:42:53.255Z,0.40
2023-08-07T13:45:55.133Z,0.77
2023-08-07T13:48:56.951Z,0.30
2023-08-07T13:51:59.086Z,0.37
2023-08-07T13:55:01.102Z,0.43
2023-08-07T13:58:06.474Z,0.30
2023-08-07T14:01:13.860Z,0.40
2023-08-07T14:04:15.801Z,0.40
2023-08-07T14:07:17.706Z,0.50
2023-08-07T14:10:23.091Z,0.47
2023-08-07T14:13:25.056Z,0.80
2023-08-07T14:16:26.981Z,0.40
2023-08-07T14:19:28.944Z,0.60
2023-08-07T14:22:31.889Z,0.50
2023-08-07T14:25:37.157Z,0.50
2023-08-07T14:28:38.990Z,0.65
2023-08-07T14:31:41.187Z,0.73
2023-08-07T14:34:43.126Z,0.38
2023-08-07T14:37:45.170Z,0.60
2023-08-07T14:40:50.329Z,0.53
2023-08-07T14:43:56.816Z,0.40
2023-08-07T14:46:58.929Z,0.60
2023-08-07T14:50:00.826Z,0.60
2023-08-07T14:53:02.668Z,0.50
2023-08-07T14:56:08.011Z,0.53
2023-08-07T14:59:13.482Z,0.40
2023-08-07T15:02:15.561Z,0.60
2023-08-07T15:05:17.440Z,0.57
2023-08-07T15:08:19.346Z,0.30
2023-08-07T15:11:21.227Z,0.40
2023-08-07T15:14:23.219Z,0.30
2023-08-07T15:17:25.239Z,0.40
2023-08-07T15:20:27.267Z,0.32
2023-08-07T15:23:29.200Z,0.50
2023-08-07T15:26:34.249Z,0.40
2023-08-07T15:29:36.165Z,0.40
2023-08-07T15:32:42.817Z,0.47
2023-08-07T15:35:45.132Z,0.30
2023-08-07T15:38:47.216Z,0.50
2023-08-07T15:41:53.740Z,0.40
2023-08-07T15:44:55.740Z,0.40
2023-08-07T15:47:57.575Z,0.70
2023-08-07T15:50:59.471Z,0.60
2023-08-07T15:54:01.329Z,0.73
2023-08-07T15:57:03.558Z,0.40
2023-08-07T16:00:10.602Z,0.50
2023-08-07T16:03:16.188Z,0.60
2023-08-07T16:06:17.997Z,0.45
2023-08-07T16:09:19.814Z,0.60
2023-08-07T16:12:21.619Z,0.50
2023-08-07T16:15:23.767Z,0.50
2023-08-07T16:18:25.825Z,0.70
2023-08-07T16:21:27.603Z,0.50
2023-08-07T16:24:29.501Z,0.50
2023-08-07T16:27:36.001Z,0.60
2023-08-07T16:30:37.823Z,0.57
2023-08-07T16:33:43.299Z,0.40
2023-08-07T16:36:49.709Z,0.50
2023-08-07T16:39:51.534Z,0.53
2023-08-07T16:42:56.257Z,0.50
2023-08-07T16:45:58.086Z,0.50
2023-08-07T16:48:59.938Z,0.45
2023-08-07T16:52:01.966Z,0.60
2023-08-07T16:55:04.241Z,0.40
2023-08-07T16:58:09.442Z,0.40
2023-08-07T17:01:15.007Z,0.40
2023-08-07T17:04:17.162Z,0.50
2023-08-07T17:07:19.040Z,0.60
2023-08-07T17:10:20.966Z,0.80
2023-08-07T17:13:30.712Z,0.60
2023-08-07T17:16:32.618Z,0.40
2023-08-07T17:19:34.496Z,0.70
2023-08-07T17:22:36.382Z,0.65
2023-08-07T17:25:38.209Z,0.53
2023-08-07T17:28:43.843Z,0.50
2023-08-07T17:31:48.491Z,0.60
2023-08-07T17:34:50.405Z,0.47
2023-08-07T17:37:56.032Z,0.50
2023-08-07T17:40:57.917Z,0.70
2023-08-07T17:44:03.353Z,0.53
2023-08-07T17:47:09.834Z,0.60
2023-08-07T17:50:11.644Z,0.70
2023-08-07T17:53:13.871Z,0.80
2023-08-07T17:56:16.194Z,0.80
2023-08-07T17:59:21.874Z,0.70
2023-08-07T18:02:26.567Z,0.70
2023-08-07T18:05:28.395Z,0.70
2023-08-07T18:08:30.722Z,0.60
2023-08-07T18:11:32.761Z,0.83
2023-08-07T18:14:35.814Z,0.90
2023-08-07T18:17:37.696Z,0.60
2023-08-07T18:20:39.708Z,0.60
2023-08-07T18:23:41.612Z,0.52
2023-08-07T18:26:44.690Z,0.63
2023-08-07T18:29:46.511Z,0.60
2023-08-07T18:32:49.219Z,0.60
2023-08-07T18:35:53.593Z,0.80
2023-08-07T18:38:55.624Z,0.57
2023-08-07T18:41:57.644Z,0.70
2023-08-07T18:44:59.616Z,0.80
2023-08-07T18:48:01.510Z,0.68
2023-08-07T18:51:04.867Z,0.68
2023-08-07T18:54:07.036Z,0.65
2023-08-07T18:57:09.089Z,0.90
2023-08-07T19:00:14.620Z,0.60
2023-08-07T19:03:18.266Z,0.52
2023-08-07T19:06:24.765Z,0.57
2023-08-07T19:09:26.944Z,0.70
2023-08-07T19:12:28.748Z,0.60
2023-08-07T19:15:30.640Z,0.70
2023-08-07T19:18:32.462Z,0.60
2023-08-07T19:21:34.365Z,0.57
2023-08-07T19:24:36.235Z,0.70
2023-08-07T19:27:38.173Z,0.70
2023-08-07T19:30:46.535Z,0.50
2023-08-07T19:33:58.039Z,0.70
2023-08-07T19:37:00.127Z,0.60
2023-08-07T19:40:08.218Z,0.70
2023-08-07T19:43:10.897Z,0.90
2023-08-07T19:46:12.985Z,0.63
2023-08-07T19:49:17.644Z,0.90
2023-08-07T19:52:19.463Z,0.90
2023-08-07T19:55:21.482Z,0.73
2023-08-07T19:58:23.540Z,0.77
2023-08-07T20:01:29.799Z,0.77
2023-08-07T20:04:31.830Z,0.80
2023-08-07T20:07:33.695Z,0.90
2023-08-07T20:10:35.530Z,0.80
2023-08-07T20:13:37.356Z,0.90
2023-08-07T20:16:43.054Z,1.00
2023-08-07T20:19:48.423Z,1.05
2023-08-07T20:22:50.263Z,0.80
2023-08-07T20:25:52.091Z,0.60
2023-08-07T20:28:56.380Z,1.00
2023-08-07T20:32:00.467Z,0.77
2023-08-07T20:35:02.705Z,1.08
2023-08-07T20:38:04.806Z,1.13
2023-08-07T20:41:06.694Z,1.00
2023-08-07T20:44:08.644Z,1.27
2023-08-07T20:47:13.766Z,1.30
2023-08-07T20:50:15.632Z,0.82
2023-08-07T20:53:20.292Z,1.00
2023-08-07T20:56:22.159Z,0.80
2023-08-07T20:59:24.082Z,0.90
2023-08-07T21:02:29.710Z,1.00
2023-08-07T21:05:31.820Z,1.13
2023-08-07T21:08:34.002Z,1.40
2023-08-07T21:11:36.131Z,0.90
2023-08-07T21:14:38.194Z,0.80
2023-08-07T21:17:43.787Z,0.90
2023-08-07T21:20:50.190Z,0.80
2023-08-07T21:23:52.646Z,0.90
2023-08-07T21:26:54.734Z,0.98
2023-08-07T21:29:56.781Z,1.00
2023-08-07T21:32:58.778Z,0.90
2023-08-07T21:36:05.112Z,0.88
2023-08-07T21:39:10.814Z,0.80
2023-08-07T21:42:12.873Z,0.80
2023-08-07T21:45:14.973Z,0.80
2023-08-07T21:48:17.030Z,1.00
2023-08-07T21:51:19.143Z,0.70
2023-08-07T21:54:21.276Z,0.90
2023-08-07T21:57:23.284Z,0.80
2023-08-07T22:00:25.877Z,0.80
2023-08-07T22:03:32.773Z,0.70
2023-08-07T22:06:36.364Z,1.10
2023-08-07T22:09:47.063Z,0.90
2023-08-07T22:12:52.445Z,0.88
2023-08-07T22:15:55.204Z,0.83
2023-08-07T22:19:00.854Z,1.00
2023-08-07T22:22:09.460Z,0.80
2023-08-07T22:25:11.793Z,0.80
2023-08-07T22:28:13.773Z,1.00
2023-08-07T22:31:15.681Z,0.70
2023-08-07T22:34:21.928Z,0.90
2023-08-07T22:37:26.535Z,1.00
2023-08-07T22:40:28.547Z,0.80
2023-08-07T22:43:30.579Z,0.82
2023-08-07T22:46:32.429Z,1.13
2023-08-07T22:49:37.791Z,0.97
2023-08-07T22:52:44.207Z,0.70
2023-08-07T22:55:47.986Z,0.80
2023-08-07T22:58:50.014Z,0.60
2023-08-07T23:01:51.872Z,0.80
2023-08-07T23:04:53.736Z,0.80
2023-08-07T23:08:00.227Z,0.90
2023-08-07T23:11:02.028Z,1.10
2023-08-07T23:14:04.652Z,1.10
2023-08-07T23:17:06.763Z,1.10
2023-08-07T23:20:09.213Z,0.87
2023-08-07T23:23:11.260Z,1.10
2023-08-07T23:26:13.146Z,1.13
2023-08-07T23:29:15.336Z,1.08
2023-08-07T23:32:18.027Z,1.00
2023-08-07T23:35:19.953Z,0.80
2023-08-07T23:38:25.448Z,1.27
2023-08-07T23:41:27.301Z,1.27
2023-08-07T23:44:31.968Z,1.00
2023-08-07T23:47:34.071Z,1.20
2023-08-07T23:50:39.416Z,0.87
2023-08-07T23:53:41.376Z,0.80
2023-08-07T23:56:43.365Z,0.80
2023-08-07T23:59:45.184Z,0.80
